createdAt,value
2023-01-09T00:01:24.412Z,80.97
2023-01-09T00:04:10.461Z,76.13
2023-01-09T00:06:56.385Z,75.45
2023-01-09T00:09:42.464Z,73.75
2023-01-09T00:12:28.332Z,66.95
2023-01-09T00:15:14.023Z,59.03
2023-01-09T00:17:59.606Z,59.22
2023-01-09T00:20:45.161Z,60.50
2023-01-09T00:23:30.863Z,60.90
2023-01-09T00:26:18.706Z,60.38
2023-01-09T00:29:04.960Z,55.38
2023-01-09T00:31:50.660Z,53.10
2023-01-09T00:34:37.666Z,54.33
2023-01-09T00:37:23.805Z,54.17
2023-01-09T00:40:11.284Z,60.58
2023-01-09T00:42:57.283Z,57.30
2023-01-09T00:45:43.090Z,62.63
2023-01-09T00:48:29.730Z,57.63
2023-01-09T00:51:17.361Z,58.05
2023-01-09T00:54:04.236Z,60.45
2023-01-09T00:56:50.265Z,55.65
2023-01-09T00:59:35.958Z,55.85
2023-01-09T01:02:21.908Z,52.08
2023-01-09T01:05:27.189Z,51.95
2023-01-09T01:08:14.891Z,52.35
2023-01-09T01:11:09.347Z,53.20
2023-01-09T01:13:55.419Z,52.78
2023-01-09T01:16:41.328Z,57.45
2023-01-09T01:19:26.982Z,54.35
2023-01-09T01:22:12.598Z,56.35
2023-01-09T01:24:58.433Z,59.22
2023-01-09T01:27:44.707Z,59.50
2023-01-09T01:30:31.499Z,59.40
2023-01-09T01:33:17.564Z,70.15
2023-01-09T01:36:08.660Z,73.20
2023-01-09T01:38:54.678Z,87.88
2023-01-09T01:41:40.492Z,85.35
2023-01-09T01:45:03.814Z,70.70
2023-01-09T01:47:49.351Z,59.15
2023-01-09T01:50:45.866Z,58.65
2023-01-09T01:53:36.330Z,55.33
2023-01-09T01:56:29.188Z,55.22
2023-01-09T01:59:23.101Z,57.63
2023-01-09T02:02:09.869Z,63.92
2023-01-09T02:04:57.084Z,73.32
2023-01-09T02:07:47.616Z,70.72
2023-01-09T02:10:34.455Z,69.28
2023-01-09T02:13:20.620Z,77.43
2023-01-09T02:16:15.546Z,85.10
2023-01-09T02:19:35.758Z,84.63
2023-01-09T02:22:36.830Z,78.15
2023-01-09T02:25:31.998Z,79.35
2023-01-09T02:28:30.312Z,76.10
2023-01-09T02:31:44.726Z,77.10
2023-01-09T02:35:01.572Z,73.13
2023-01-09T02:38:12.291Z,75.05
2023-01-09T02:41:13.616Z,73.20
2023-01-09T02:44:31.980Z,74.28
2023-01-09T02:47:20.739Z,72.60
2023-01-09T02:50:13.776Z,74.95
2023-01-09T02:53:19.221Z,75.70
2023-01-09T02:56:11.214Z,72.47
2023-01-09T02:59:15.342Z,71.82
2023-01-09T03:02:39.549Z,77.22
2023-01-09T03:05:50.123Z,108.60
2023-01-09T03:08:43.646Z,138.35
2023-01-09T03:14:21.132Z,88.80
2023-01-09T03:17:12.749Z,82.53
2023-01-09T03:20:01.199Z,71.97
2023-01-09T03:22:54.792Z,75.88
2023-01-09T03:25:40.762Z,73.88
2023-01-09T03:28:28.613Z,70.00
2023-01-09T03:31:15.086Z,72.70
2023-01-09T03:34:01.246Z,73.47
2023-01-09T03:36:46.910Z,72.38
2023-01-09T03:39:32.709Z,71.47
2023-01-09T03:42:18.772Z,68.93
2023-01-09T03:45:05.299Z,70.00
2023-01-09T03:47:52.964Z,69.68
2023-01-09T03:50:39.189Z,71.10
2023-01-09T03:53:26.982Z,72.18
2023-01-09T03:56:12.566Z,69.20
2023-01-09T03:58:58.178Z,69.43
2023-01-09T04:01:43.908Z,64.82
2023-01-09T04:04:29.755Z,64.32
2023-01-09T04:07:15.555Z,63.45
2023-01-09T04:10:01.442Z,61.50
2023-01-09T04:12:47.171Z,63.05
2023-01-09T04:15:32.862Z,58.20
2023-01-09T04:18:18.642Z,58.97
2023-01-09T04:21:04.324Z,47.00
2023-01-09T04:23:50.042Z,47.13
2023-01-09T04:26:35.696Z,47.03
2023-01-09T04:29:21.531Z,45.60
2023-01-09T04:32:07.609Z,47.40
2023-01-09T04:34:54.201Z,51.17
2023-01-09T04:37:39.828Z,53.90
2023-01-09T04:40:25.527Z,55.47
2023-01-09T04:43:11.290Z,54.08
2023-01-09T04:45:57.012Z,47.47
2023-01-09T04:48:43.506Z,43.88
2023-01-09T04:51:29.244Z,41.28
2023-01-09T04:54:15.040Z,36.17
2023-01-09T04:57:01.036Z,39.28
2023-01-09T04:59:46.923Z,45.50
2023-01-09T05:02:32.470Z,45.95
2023-01-09T05:05:18.489Z,35.47
2023-01-09T05:08:06.031Z,30.73
2023-01-09T05:10:51.927Z,30.15
2023-01-09T05:13:37.596Z,27.55
2023-01-09T05:16:23.319Z,26.77
2023-01-09T05:19:09.175Z,25.05
2023-01-09T05:21:54.936Z,24.95
2023-01-09T05:24:40.612Z,24.08
2023-01-09T05:27:27.365Z,23.23
2023-01-09T05:30:15.511Z,24.33
2023-01-09T05:33:03.300Z,23.88
2023-01-09T05:35:48.952Z,21.75
2023-01-09T05:38:34.811Z,22.40
2023-01-09T05:41:21.370Z,22.75
2023-01-09T05:44:07.912Z,21.77
2023-01-09T05:46:53.608Z,23.27
2023-01-09T05:49:39.104Z,23.80
2023-01-09T05:52:24.939Z,23.80
2023-01-09T05:55:11.513Z,23.27
2023-01-09T05:57:57.250Z,22.17
2023-01-09T06:00:43.066Z,22.05
2023-01-09T06:03:28.797Z,22.77
2023-01-09T06:06:14.680Z,22.13
2023-01-09T06:09:00.392Z,22.17
2023-01-09T06:11:46.101Z,21.77
2023-01-09T06:14:31.764Z,23.27
2023-01-09T06:17:17.331Z,21.92
2023-01-09T06:20:03.381Z,22.13
2023-01-09T06:22:52.038Z,22.55
2023-01-09T06:25:37.962Z,21.23
2023-01-09T06:28:23.616Z,20.85
2023-01-09T06:31:09.347Z,25.08
2023-01-09T06:33:54.977Z,22.45
2023-01-09T06:36:40.696Z,20.73
2023-01-09T06:39:26.417Z,22.70
2023-01-09T06:42:12.093Z,24.48
2023-01-09T06:45:01.405Z,24.25
2023-01-09T06:47:48.418Z,25.20
2023-01-09T06:50:34.825Z,23.85
2023-01-09T06:53:20.985Z,26.08
2023-01-09T06:56:06.859Z,22.42
2023-01-09T06:58:52.950Z,25.67
2023-01-09T07:01:39.932Z,24.45
2023-01-09T07:04:25.979Z,24.98
2023-01-09T07:07:11.838Z,23.80
2023-01-09T07:09:57.629Z,23.27
2023-01-09T07:12:43.432Z,24.17
2023-01-09T07:15:29.209Z,23.63
2023-01-09T07:18:14.761Z,21.75
2023-01-09T07:21:00.401Z,22.48
2023-01-09T07:23:46.119Z,22.85
2023-01-09T07:26:31.771Z,23.50
2023-01-09T07:29:17.558Z,23.42
2023-01-09T07:32:03.931Z,23.92
2023-01-09T07:34:51.672Z,24.27
2023-01-09T07:37:37.653Z,24.55
2023-01-09T07:40:23.710Z,25.27
2023-01-09T07:43:09.462Z,20.15
2023-01-09T07:45:55.314Z,20.63
2023-01-09T07:48:41.031Z,25.13
2023-01-09T07:51:26.585Z,29.00
2023-01-09T07:54:13.602Z,27.92
2023-01-09T07:56:59.243Z,27.40
2023-01-09T07:59:45.257Z,21.70
2023-01-09T08:02:31.230Z,18.98
2023-01-09T08:05:17.138Z,17.83
2023-01-09T08:08:03.110Z,16.58
2023-01-09T08:10:48.919Z,19.42
2023-01-09T08:13:35.119Z,19.52
2023-01-09T08:16:20.683Z,18.70
2023-01-09T08:19:06.482Z,19.30
2023-01-09T08:21:52.336Z,20.83
2023-01-09T08:24:38.001Z,19.30
2023-01-09T08:27:23.731Z,20.15
2023-01-09T08:30:10.416Z,17.08
2023-01-09T08:32:56.202Z,20.23
2023-01-09T08:35:44.053Z,19.17
2023-01-09T08:38:30.096Z,21.50
2023-01-09T08:41:35.445Z,21.13
2023-01-09T08:44:40.214Z,19.00
2023-01-09T08:47:27.382Z,15.95
2023-01-09T08:50:13.409Z,21.48
2023-01-09T08:52:59.098Z,20.38
2023-01-09T08:55:45.015Z,18.60
2023-01-09T08:58:30.917Z,18.63
2023-01-09T09:01:16.906Z,22.88
2023-01-09T09:04:05.368Z,20.98
2023-01-09T09:06:51.297Z,20.17
2023-01-09T09:09:37.009Z,17.45
2023-01-09T09:12:23.041Z,15.00
2023-01-09T09:15:12.699Z,17.17
2023-01-09T09:18:04.350Z,14.30
2023-01-09T09:20:50.143Z,14.65
2023-01-09T09:23:35.815Z,13.73
2023-01-09T09:26:21.478Z,19.27
2023-01-09T09:29:07.210Z,18.17
2023-01-09T09:31:53.445Z,21.20
2023-01-09T09:34:39.408Z,20.35
2023-01-09T09:37:25.122Z,19.42
2023-01-09T09:40:19.236Z,18.38
2023-01-09T09:43:57.781Z,18.17
2023-01-09T09:47:20.396Z,18.50
2023-01-09T09:50:34.361Z,16.20
2023-01-09T09:53:40.365Z,17.02
2023-01-09T09:56:27.986Z,16.33
2023-01-09T09:59:25.552Z,14.65
2023-01-09T10:02:17.028Z,16.15
2023-01-09T10:05:12.064Z,14.18
2023-01-09T10:08:15.357Z,17.48
2023-01-09T10:11:02.401Z,17.67
2023-01-09T10:14:22.875Z,17.15
2023-01-09T10:17:21.932Z,18.45
2023-01-09T10:20:12.357Z,16.92
2023-01-09T10:23:06.792Z,13.55
2023-01-09T10:25:58.570Z,19.88
2023-01-09T10:28:50.716Z,19.77
2023-01-09T10:32:14.096Z,16.55
2023-01-09T10:35:09.165Z,17.55
2023-01-09T10:37:57.762Z,19.90
2023-01-09T10:41:07.787Z,19.05
2023-01-09T10:44:18.077Z,17.73
2023-01-09T10:47:09.412Z,20.08
2023-01-09T10:49:55.980Z,22.58
2023-01-09T10:52:42.890Z,18.60
2023-01-09T10:55:44.243Z,20.10
2023-01-09T10:58:30.043Z,19.70
2023-01-09T11:01:24.305Z,18.88
2023-01-09T11:04:29.848Z,20.90
2023-01-09T11:07:22.355Z,23.65
2023-01-09T11:10:12.000Z,23.27
2023-01-09T11:13:17.813Z,25.80
2023-01-09T11:17:01.588Z,24.52
2023-01-09T11:20:18.059Z,23.10
2023-01-09T11:23:04.134Z,23.42
2023-01-09T11:25:55.957Z,23.90
2023-01-09T11:28:41.905Z,22.27
2023-01-09T11:31:29.631Z,16.60
2023-01-09T11:34:22.469Z,14.98
2023-01-09T11:37:12.443Z,14.98
2023-01-09T11:39:59.948Z,17.50
2023-01-09T11:43:21.614Z,16.10
2023-01-09T11:46:13.488Z,15.18
2023-01-09T11:49:00.161Z,13.63
2023-01-09T11:51:46.421Z,12.77
2023-01-09T11:54:35.181Z,13.02
2023-01-09T11:57:22.508Z,14.38
2023-01-09T12:00:26.025Z,13.25
2023-01-09T12:03:56.248Z,15.73
2023-01-09T12:07:16.286Z,12.50
2023-01-09T12:10:12.128Z,10.45
2023-01-09T12:13:08.138Z,10.85
2023-01-09T12:16:23.334Z,12.05
2023-01-09T12:19:34.359Z,11.80
2023-01-09T12:22:32.176Z,16.60
2023-01-09T12:25:29.157Z,14.32
2023-01-09T12:28:34.713Z,21.77
2023-01-09T12:31:24.304Z,12.00
2023-01-09T12:34:53.228Z,10.45
2023-01-09T12:37:51.380Z,8.82
2023-01-09T12:40:53.348Z,9.07
2023-01-09T12:43:58.443Z,9.80
2023-01-09T12:47:03.459Z,10.30
2023-01-09T12:49:53.851Z,10.38
2023-01-09T12:52:44.344Z,10.02
2023-01-09T12:55:34.572Z,13.02
2023-01-09T12:58:55.260Z,9.68
2023-01-09T13:01:46.217Z,10.10
2023-01-09T13:04:36.354Z,8.82
2023-01-09T13:07:26.302Z,8.93
2023-01-09T13:10:47.500Z,7.75
2023-01-09T13:13:45.688Z,15.68
2023-01-09T13:16:35.752Z,57.85
2023-01-09T13:19:40.034Z,9.05
2023-01-09T13:25:25.539Z,8.60
2023-01-09T13:28:35.130Z,8.15
2023-01-09T13:31:48.828Z,7.70
2023-01-09T13:34:36.238Z,8.65
2023-01-09T13:37:27.959Z,7.50
2023-01-09T13:40:33.112Z,8.45
2023-01-09T13:43:19.151Z,9.23
2023-01-09T13:46:05.603Z,10.00
2023-01-09T13:48:51.418Z,9.85
2023-01-09T13:51:57.041Z,10.02
2023-01-09T13:54:55.622Z,10.13
2023-01-09T13:58:14.968Z,10.32
2023-01-09T14:01:04.724Z,11.35
2023-01-09T14:04:27.587Z,10.52
2023-01-09T14:07:25.413Z,10.85
2023-01-09T14:10:24.497Z,11.00
2023-01-09T14:13:38.409Z,10.20
2023-01-09T14:16:27.117Z,9.25
2023-01-09T14:19:16.437Z,9.82
2023-01-09T14:22:02.896Z,10.60
2023-01-09T14:24:52.705Z,10.30
2023-01-09T14:28:06.815Z,7.97
2023-01-09T14:30:53.790Z,7.82
2023-01-09T14:33:40.033Z,9.98
2023-01-09T14:36:29.464Z,7.25
2023-01-09T14:39:15.682Z,10.68
2023-01-09T14:42:15.685Z,11.93
2023-01-09T14:45:18.385Z,10.70
2023-01-09T14:48:06.355Z,12.15
2023-01-09T14:50:55.877Z,12.15
2023-01-09T14:53:43.208Z,12.55
2023-01-09T14:56:31.233Z,13.80
2023-01-09T14:59:19.350Z,12.63
2023-01-09T15:02:09.804Z,12.07
2023-01-09T15:04:59.147Z,13.57
2023-01-09T15:08:01.463Z,12.77
2023-01-09T15:10:54.232Z,11.43
2023-01-09T15:13:46.445Z,11.75
2023-01-09T15:16:32.943Z,13.30
2023-01-09T15:19:19.948Z,12.60
2023-01-09T15:22:22.807Z,13.00
2023-01-09T15:25:27.327Z,13.88
2023-01-09T15:28:42.060Z,12.43
2023-01-09T15:31:28.843Z,13.95
2023-01-09T15:34:18.803Z,14.23
2023-01-09T15:37:05.196Z,13.05
2023-01-09T15:39:51.127Z,13.82
2023-01-09T15:42:57.276Z,13.38
2023-01-09T15:45:45.330Z,14.95
2023-01-09T15:48:34.209Z,14.90
2023-01-09T15:51:20.734Z,14.85
2023-01-09T15:54:06.369Z,16.48
2023-01-09T15:56:52.342Z,15.38
2023-01-09T15:59:38.737Z,16.75
2023-01-09T16:02:44.936Z,15.73
2023-01-09T16:05:33.177Z,15.05
2023-01-09T16:08:40.114Z,15.57
2023-01-09T16:11:29.888Z,15.75
2023-01-09T16:14:22.914Z,16.23
2023-01-09T16:17:17.728Z,15.45
2023-01-09T16:20:25.117Z,14.93
2023-01-09T16:23:25.371Z,13.75
2023-01-09T16:26:13.684Z,14.43
2023-01-09T16:29:40.256Z,14.85
2023-01-09T16:32:48.127Z,14.00
2023-01-09T16:35:34.885Z,13.48
2023-01-09T16:38:22.586Z,14.05
2023-01-09T16:41:35.256Z,14.27
2023-01-09T16:44:21.277Z,14.13
2023-01-09T16:47:11.849Z,12.85
2023-01-09T16:49:58.068Z,13.27
2023-01-09T16:52:45.824Z,11.88
2023-01-09T16:55:32.326Z,13.10
2023-01-09T16:58:22.956Z,12.77
2023-01-09T17:01:10.476Z,12.57
2023-01-09T17:03:56.729Z,13.13
2023-01-09T17:06:43.083Z,12.90
2023-01-09T17:09:32.956Z,12.15
2023-01-09T17:12:21.017Z,13.95
2023-01-09T17:15:08.174Z,15.10
2023-01-09T17:17:54.001Z,13.65
2023-01-09T17:20:41.291Z,14.60
2023-01-09T17:23:26.864Z,15.48
2023-01-09T17:26:40.106Z,13.70
2023-01-09T17:29:30.182Z,14.17
2023-01-09T17:32:17.234Z,15.25
2023-01-09T17:35:03.429Z,19.27
2023-01-09T17:37:49.466Z,19.27
2023-01-09T17:40:35.238Z,23.63
2023-01-09T17:43:21.414Z,21.58
2023-01-09T17:46:10.757Z,18.50
2023-01-09T17:48:57.327Z,20.10
2023-01-09T17:51:43.142Z,26.08
2023-01-09T17:54:29.015Z,22.95
2023-01-09T17:57:16.660Z,18.58
2023-01-09T18:00:06.520Z,20.40
2023-01-09T18:02:53.167Z,20.08
2023-01-09T18:05:38.954Z,18.60
2023-01-09T18:08:24.835Z,21.00
2023-01-09T18:11:19.505Z,20.42
2023-01-09T18:14:05.397Z,19.80
2023-01-09T18:16:51.149Z,20.88
2023-01-09T18:19:36.809Z,18.67
2023-01-09T18:22:22.550Z,19.50
2023-01-09T18:25:08.722Z,20.52
2023-01-09T18:27:54.485Z,19.50
2023-01-09T18:30:40.334Z,21.23
2023-01-09T18:33:26.017Z,20.73
2023-01-09T18:36:12.159Z,21.38
2023-01-09T18:39:00.123Z,20.30
2023-01-09T18:41:45.744Z,19.80
2023-01-09T18:44:31.393Z,20.92
2023-01-09T18:47:17.028Z,20.67
2023-01-09T18:50:02.706Z,20.85
2023-01-09T18:52:48.502Z,21.00
2023-01-09T18:55:36.507Z,20.75
2023-01-09T18:58:22.475Z,30.80
2023-01-09T19:01:08.397Z,21.58
2023-01-09T19:03:56.080Z,20.58
2023-01-09T19:06:41.821Z,20.50
2023-01-09T19:09:28.085Z,19.90
2023-01-09T19:12:14.042Z,19.58
2023-01-09T19:15:00.456Z,19.80
2023-01-09T19:17:47.111Z,20.58
2023-01-09T19:20:33.233Z,24.25
2023-01-09T19:23:20.001Z,19.77
2023-01-09T19:26:08.622Z,23.08
2023-01-09T19:28:55.561Z,20.42
2023-01-09T19:31:41.996Z,21.67
2023-01-09T19:34:28.364Z,18.60
2023-01-09T19:37:14.348Z,19.83
2023-01-09T19:40:00.302Z,17.25
2023-01-09T19:42:45.980Z,18.02
2023-01-09T19:45:31.733Z,19.17
2023-01-09T19:48:17.789Z,20.52
2023-01-09T19:51:05.501Z,20.13
2023-01-09T19:56:45.720Z,18.83
2023-01-09T19:59:31.819Z,19.85
2023-01-09T20:02:17.768Z,19.08
2023-01-09T20:05:03.909Z,18.10
2023-01-09T20:07:55.991Z,18.38
2023-01-09T20:10:42.011Z,16.73
2023-01-09T20:13:27.982Z,17.42
2023-01-09T20:16:17.058Z,16.05
2023-01-09T20:19:07.700Z,16.90
2023-01-09T20:21:53.586Z,16.10
2023-01-09T20:24:39.422Z,15.65
2023-01-09T20:27:25.541Z,16.35
2023-01-09T20:30:11.770Z,16.40
2023-01-09T20:32:58.771Z,17.27
2023-01-09T20:35:45.931Z,15.85
2023-01-09T20:38:32.945Z,16.42
2023-01-09T20:41:25.561Z,17.10
2023-01-09T20:44:13.545Z,17.55
2023-01-09T20:46:59.543Z,17.75
2023-01-09T20:49:45.379Z,18.20
2023-01-09T20:52:30.968Z,17.52
2023-01-09T20:55:16.779Z,16.30
2023-01-09T20:58:02.618Z,16.38
2023-01-09T21:00:48.290Z,17.83
2023-01-09T21:03:34.575Z,17.67
2023-01-09T21:06:21.948Z,17.35
2023-01-09T21:09:07.942Z,16.30
2023-01-09T21:11:54.130Z,15.52
2023-01-09T21:14:39.895Z,15.93
2023-01-09T21:17:25.643Z,18.30
2023-01-09T21:20:14.086Z,16.85
2023-01-09T21:23:00.411Z,15.35
2023-01-09T21:25:48.893Z,15.95
2023-01-09T21:28:43.729Z,15.25
2023-01-09T21:31:34.837Z,15.93
2023-01-09T21:34:20.985Z,14.70
2023-01-09T21:37:07.206Z,14.38
2023-01-09T21:39:52.836Z,15.48
2023-01-09T21:42:57.133Z,13.73
2023-01-09T21:46:01.907Z,13.30
2023-01-09T21:48:47.791Z,12.82
2023-01-09T21:51:39.353Z,12.95
2023-01-09T21:54:25.470Z,12.43
2023-01-09T21:57:11.520Z,12.45
2023-01-09T21:59:57.207Z,12.73
2023-01-09T22:02:44.041Z,12.10
2023-01-09T22:05:29.861Z,13.07
2023-01-09T22:08:15.642Z,11.77
2023-01-09T22:11:01.543Z,11.45
2023-01-09T22:13:48.400Z,10.93
2023-01-09T22:16:34.441Z,11.35
2023-01-09T22:19:20.472Z,11.07
2023-01-09T22:22:08.568Z,11.13
2023-01-09T22:24:54.560Z,11.10
2023-01-09T22:27:40.385Z,10.32
2023-01-09T22:30:26.085Z,10.98
2023-01-09T22:33:11.800Z,10.25
2023-01-09T22:35:57.452Z,11.10
2023-01-09T22:38:43.145Z,10.93
2023-01-09T22:41:32.224Z,10.20
2023-01-09T22:44:19.155Z,10.40
2023-01-09T22:47:05.119Z,11.25
2023-01-09T22:49:53.443Z,9.40
2023-01-09T22:52:39.709Z,9.70
2023-01-09T22:55:25.309Z,9.20
2023-01-09T22:58:10.931Z,8.80
2023-01-09T23:00:56.934Z,8.88
2023-01-09T23:03:42.842Z,8.93
2023-01-09T23:06:28.569Z,8.93
2023-01-09T23:09:14.222Z,9.35
2023-01-09T23:12:03.130Z,10.20
2023-01-09T23:14:49.599Z,8.98
2023-01-09T23:17:36.488Z,8.85
2023-01-09T23:20:22.106Z,8.80
2023-01-09T23:23:07.971Z,10.00
2023-01-09T23:25:56.345Z,8.30
2023-01-09T23:28:42.099Z,9.13
2023-01-09T23:31:27.829Z,9.13
2023-01-09T23:34:15.654Z,9.18
2023-01-09T23:37:01.638Z,9.20
2023-01-09T23:39:47.491Z,9.45
2023-01-09T23:42:51.561Z,9.30
2023-01-09T23:45:42.303Z,8.88
2023-01-09T23:48:28.916Z,9.20
2023-01-09T23:51:14.822Z,8.50
2023-01-09T23:54:00.465Z,9.20
2023-01-09T23:56:46.175Z,9.05
2023-01-09T23:59:32.067Z,8.82
